Terminal Aerodrome Forecast
Issued by NWS Charleston, WV

Current Version | Previous Version | Graphics & Text | Print | Product List | Glossary On
Versions: 1 2 3 4 5 6 7 8 9 10 11 12 13 14 15 16 17 18 19
189
FTUS41 KRLX 081516 AAA
TAFEKN
TAF AMD
KEKN 081516Z 0815/0912 22005KT 6SM -SHSN BR OVC040
     FM082000 18008KT 4SM -SHRASN OVC007
     FM090000 26005KT 3SM -SHRASN OVC007
     FM090200 26004KT 1SM -SHSN OVC007=

USA.gov is the U.S. government's official web portal to all federal, state and local government web resources and services.